createdAt,value
2019-03-09T00:00:41.221Z,65.00
2019-03-09T00:03:13.213Z,65.21
2019-03-09T00:05:44.344Z,65.30
2019-03-09T00:08:15.502Z,65.67
2019-03-09T00:10:46.655Z,65.70
2019-03-09T00:13:19.650Z,65.64
2019-03-09T00:15:50.797Z,65.87
2019-03-09T00:18:22.052Z,65.76
2019-03-09T00:20:53.181Z,65.70
2019-03-09T00:23:26.239Z,65.97
2019-03-09T00:26:10.644Z,65.95
2019-03-09T00:29:00.941Z,65.86
2019-03-09T00:31:39.851Z,66.08
2019-03-09T00:34:11.050Z,65.88
2019-03-09T00:36:43.705Z,65.80
2019-03-09T00:39:16.437Z,65.89
2019-03-09T00:41:48.454Z,65.98
2019-03-09T00:44:18.880Z,66.15
2019-03-09T00:46:49.993Z,66.35
2019-03-09T00:49:21.414Z,66.25
2019-03-09T00:51:52.752Z,66.32
2019-03-09T00:54:25.001Z,66.28
2019-03-09T00:56:56.113Z,66.40
2019-03-09T00:59:27.349Z,66.51
2019-03-09T01:01:58.484Z,66.43
2019-03-09T01:04:29.666Z,66.26
2019-03-09T01:07:00.815Z,66.31
2019-03-09T01:09:31.948Z,66.52
2019-03-09T01:12:03.089Z,66.76
2019-03-09T01:14:34.795Z,66.68
2019-03-09T01:17:08.230Z,66.47
2019-03-09T01:19:39.386Z,66.74
2019-03-09T01:22:10.485Z,66.77
2019-03-09T01:24:41.686Z,66.77
2019-03-09T01:27:12.917Z,66.86
2019-03-09T01:29:44.057Z,66.92
2019-03-09T01:32:15.178Z,67.12
2019-03-09T01:34:46.462Z,67.18
2019-03-09T01:37:17.559Z,67.22
2019-03-09T01:39:47.990Z,67.33
2019-03-09T01:42:19.074Z,67.31
2019-03-09T01:44:50.230Z,67.52
2019-03-09T01:47:21.351Z,67.53
2019-03-09T01:49:52.593Z,67.40
2019-03-09T01:52:24.562Z,67.39
2019-03-09T01:54:55.719Z,67.29
2019-03-09T01:57:26.841Z,67.01
2019-03-09T01:59:58.035Z,67.18
2019-03-09T02:02:29.226Z,66.91
2019-03-09T02:05:00.479Z,66.86
2019-03-09T02:07:31.633Z,66.84
2019-03-09T02:10:02.895Z,66.82
2019-03-09T02:12:34.984Z,66.70
2019-03-09T02:15:11.659Z,66.98
2019-03-09T02:17:42.792Z,67.15
2019-03-09T02:20:17.567Z,67.41
2019-03-09T02:22:48.667Z,67.36
2019-03-09T02:25:19.848Z,67.51
2019-03-09T02:27:51.028Z,67.77
2019-03-09T02:30:22.236Z,67.74
2019-03-09T02:32:53.376Z,67.97
2019-03-09T02:35:24.493Z,68.09
2019-03-09T02:37:57.246Z,68.24
2019-03-09T02:40:29.558Z,68.29
2019-03-09T02:43:00.667Z,68.08
2019-03-09T02:45:32.701Z,68.23
2019-03-09T02:48:03.820Z,68.31
2019-03-09T02:50:36.529Z,68.27
2019-03-09T02:53:07.700Z,68.14
2019-03-09T02:55:38.802Z,67.83
2019-03-09T02:58:10.011Z,67.90
2019-03-09T03:00:42.779Z,68.21
2019-03-09T03:03:13.926Z,67.96
2019-03-09T03:05:45.008Z,68.10
2019-03-09T03:08:15.498Z,68.13
2019-03-09T03:10:46.508Z,68.38
2019-03-09T03:13:17.097Z,68.29
2019-03-09T03:15:49.737Z,68.19
2019-03-09T03:18:22.424Z,68.18
2019-03-09T03:20:53.639Z,68.33
2019-03-09T03:23:24.802Z,68.51
2019-03-09T03:25:55.967Z,68.58
2019-03-09T03:28:27.829Z,68.47
2019-03-09T03:30:59.004Z,68.54
2019-03-09T03:33:30.288Z,68.41
2019-03-09T03:36:01.434Z,68.12
2019-03-09T03:38:32.577Z,67.95
2019-03-09T03:41:03.048Z,68.07
2019-03-09T03:43:34.286Z,67.89
2019-03-09T03:46:05.543Z,67.98
2019-03-09T03:48:36.750Z,67.70
2019-03-09T03:51:09.357Z,67.94
2019-03-09T03:53:41.713Z,67.84
2019-03-09T03:56:14.220Z,67.89
2019-03-09T03:58:46.962Z,67.35
2019-03-09T04:01:18.123Z,67.20
2019-03-09T04:03:49.322Z,67.25
2019-03-09T04:06:20.436Z,67.28
2019-03-09T04:08:50.983Z,66.96
2019-03-09T04:11:22.143Z,67.00
2019-03-09T04:13:54.311Z,66.69
2019-03-09T04:16:25.424Z,66.65
2019-03-09T04:18:58.081Z,66.45
2019-03-09T04:21:30.101Z,66.73
2019-03-09T04:24:00.535Z,66.81
2019-03-09T04:26:31.655Z,66.56
2019-03-09T04:29:04.382Z,66.45
2019-03-09T04:31:36.529Z,66.53
2019-03-09T04:34:07.700Z,66.83
2019-03-09T04:36:40.433Z,66.61
2019-03-09T04:39:11.488Z,66.61
2019-03-09T04:41:41.896Z,66.63
2019-03-09T04:44:12.979Z,66.52
2019-03-09T04:46:45.106Z,66.34
2019-03-09T04:49:18.378Z,66.23
2019-03-09T04:51:51.746Z,66.33
2019-03-09T04:54:22.918Z,66.34
2019-03-09T04:56:54.061Z,65.74
2019-03-09T04:59:26.250Z,65.93
2019-03-09T05:01:58.680Z,65.96
2019-03-09T05:04:41.935Z,65.94
2019-03-09T05:07:16.073Z,65.70
2019-03-09T05:09:58.961Z,65.58
2019-03-09T05:12:31.013Z,65.18
2019-03-09T05:15:02.021Z,65.20
2019-03-09T05:17:32.475Z,65.12
2019-03-09T05:20:03.942Z,65.26
2019-03-09T05:22:35.014Z,65.00
2019-03-09T05:25:05.463Z,64.96
2019-03-09T05:27:36.509Z,65.01
2019-03-09T05:30:11.400Z,65.01
2019-03-09T05:32:42.565Z,65.03
2019-03-09T05:35:13.758Z,64.89
2019-03-09T05:37:44.917Z,64.57
2019-03-09T05:40:16.778Z,62.39
2019-03-09T05:42:47.874Z,59.73
2019-03-09T05:45:19.031Z,56.54
2019-03-09T05:47:51.171Z,51.99
2019-03-09T05:50:22.432Z,49.42
2019-03-09T05:53:03.107Z,47.30
2019-03-09T05:55:34.384Z,45.01
2019-03-09T05:58:05.627Z,43.83
2019-03-09T06:00:38.437Z,42.44
2019-03-09T06:03:10.023Z,42.31
2019-03-09T06:05:47.273Z,41.14
2019-03-09T06:08:19.268Z,39.48
2019-03-09T06:10:50.650Z,38.35
2019-03-09T06:13:21.872Z,37.67
2019-03-09T06:15:53.084Z,38.04
2019-03-09T06:18:25.859Z,37.08
2019-03-09T06:20:57.075Z,37.93
2019-03-09T06:23:30.552Z,37.32
2019-03-09T06:26:05.208Z,35.92
2019-03-09T06:28:36.396Z,35.03
2019-03-09T06:31:08.815Z,34.63
2019-03-09T06:33:40.046Z,34.49
2019-03-09T06:36:23.550Z,34.92
2019-03-09T06:39:00.337Z,35.21
2019-03-09T06:41:55.655Z,35.03
2019-03-09T06:44:26.913Z,35.91
2019-03-09T06:46:58.224Z,33.37
2019-03-09T06:49:29.481Z,32.01
2019-03-09T06:52:00.812Z,32.48
2019-03-09T06:54:32.048Z,32.44
2019-03-09T06:58:20.046Z,32.80
2019-03-09T07:00:51.292Z,32.10
2019-03-09T07:03:22.542Z,30.73
2019-03-09T07:05:55.283Z,30.82
2019-03-09T07:08:26.522Z,30.98
2019-03-09T07:10:58.556Z,30.36
2019-03-09T07:13:29.794Z,30.16
2019-03-09T07:16:01.016Z,29.92
2019-03-09T07:18:33.143Z,30.13
2019-03-09T07:21:05.723Z,29.50
2019-03-09T07:23:38.671Z,30.13
2019-03-09T07:26:09.928Z,31.42
2019-03-09T07:28:41.205Z,30.86
2019-03-09T07:31:12.514Z,29.66
2019-03-09T07:33:43.802Z,29.63
2019-03-09T07:36:15.467Z,29.20
2019-03-09T07:38:47.730Z,30.39
2019-03-09T07:41:18.980Z,30.07
2019-03-09T07:43:50.992Z,29.36
2019-03-09T07:46:22.265Z,28.90
2019-03-09T07:48:53.625Z,28.45
2019-03-09T07:51:24.903Z,28.07
2019-03-09T07:53:56.282Z,27.75
2019-03-09T07:56:27.491Z,27.25
2019-03-09T07:58:58.848Z,28.31
2019-03-09T08:01:29.978Z,28.17
2019-03-09T08:04:01.300Z,29.11
2019-03-09T08:06:32.563Z,30.96
2019-03-09T08:09:04.741Z,33.34
2019-03-09T08:11:40.321Z,33.83
2019-03-09T08:14:14.681Z,36.03
2019-03-09T08:16:48.127Z,36.96
2019-03-09T08:19:19.356Z,38.29
2019-03-09T08:21:50.493Z,38.29
2019-03-09T08:24:21.688Z,39.09
2019-03-09T08:26:52.839Z,39.42
2019-03-09T08:29:24.021Z,40.00
2019-03-09T08:31:55.240Z,41.04
2019-03-09T08:34:26.501Z,41.41
2019-03-09T08:36:57.649Z,42.05
2019-03-09T08:39:30.445Z,42.96
2019-03-09T08:42:03.162Z,42.88
2019-03-09T08:44:34.394Z,44.99
2019-03-09T08:47:05.557Z,44.78
2019-03-09T08:49:37.569Z,44.72
2019-03-09T08:52:08.822Z,44.42
2019-03-09T08:54:41.415Z,44.61
2019-03-09T08:57:13.899Z,44.24
2019-03-09T08:59:45.233Z,44.43
2019-03-09T09:02:16.324Z,44.93
2019-03-09T09:04:46.806Z,45.48
2019-03-09T09:07:18.261Z,45.05
2019-03-09T09:09:49.605Z,44.97
2019-03-09T09:12:20.773Z,45.57
2019-03-09T09:14:51.962Z,45.53
2019-03-09T09:17:23.143Z,45.25
2019-03-09T09:19:54.537Z,46.02
2019-03-09T09:22:25.707Z,46.70
2019-03-09T09:24:58.784Z,46.73
2019-03-09T09:27:30.605Z,46.78
2019-03-09T09:30:01.886Z,46.56
2019-03-09T09:32:36.026Z,47.17
2019-03-09T09:35:11.886Z,46.91
2019-03-09T09:37:43.031Z,46.47
2019-03-09T09:40:19.936Z,46.40
2019-03-09T09:42:51.101Z,46.19
2019-03-09T09:45:23.938Z,46.29
2019-03-09T09:47:55.132Z,46.57
2019-03-09T09:50:26.341Z,46.71
2019-03-09T09:52:57.441Z,46.84
2019-03-09T09:55:28.646Z,46.77
2019-03-09T09:57:59.694Z,46.94
2019-03-09T10:00:30.878Z,46.33
2019-03-09T10:03:01.964Z,45.83
2019-03-09T10:05:33.522Z,44.65
2019-03-09T10:08:04.624Z,44.79
2019-03-09T10:10:35.801Z,44.62
2019-03-09T10:13:06.893Z,44.96
2019-03-09T10:15:39.497Z,44.93
2019-03-09T10:18:10.760Z,44.67
2019-03-09T10:20:41.918Z,44.42
2019-03-09T10:23:15.072Z,44.88
2019-03-09T10:25:46.355Z,45.26
2019-03-09T10:28:17.522Z,45.45
2019-03-09T10:30:48.676Z,45.61
2019-03-09T10:33:19.828Z,45.49
2019-03-09T10:35:52.457Z,45.43
2019-03-09T10:38:23.591Z,44.95
2019-03-09T10:40:54.820Z,44.31
2019-03-09T10:43:26.120Z,43.93
2019-03-09T10:45:58.579Z,43.72
2019-03-09T10:48:29.716Z,43.93
2019-03-09T10:51:00.900Z,43.88
2019-03-09T10:55:34.015Z,43.76
2019-03-09T10:58:05.438Z,43.39
2019-03-09T11:00:41.727Z,43.46
2019-03-09T11:03:12.871Z,43.31
2019-03-09T11:05:44.012Z,43.28
2019-03-09T11:08:15.129Z,43.68
2019-03-09T11:10:46.275Z,43.32
2019-03-09T11:13:17.551Z,42.93
2019-03-09T11:15:49.270Z,42.68
2019-03-09T11:18:20.509Z,41.88
2019-03-09T11:20:51.735Z,41.32
2019-03-09T11:23:23.000Z,41.29
2019-03-09T11:25:55.926Z,41.67
2019-03-09T11:28:29.547Z,41.74
2019-03-09T11:31:03.844Z,41.89
2019-03-09T11:33:36.210Z,40.62
2019-03-09T11:36:07.763Z,41.00
2019-03-09T11:38:42.787Z,41.33
2019-03-09T11:41:19.283Z,41.00
2019-03-09T11:43:50.430Z,41.06
2019-03-09T11:46:22.105Z,41.16
2019-03-09T11:48:52.556Z,40.54
2019-03-09T11:51:23.596Z,40.41
2019-03-09T11:53:56.409Z,40.29
2019-03-09T11:56:27.517Z,40.19
2019-03-09T11:58:58.673Z,40.08
2019-03-09T12:01:29.770Z,40.04
2019-03-09T12:04:02.481Z,40.68
2019-03-09T12:06:33.618Z,40.11
2019-03-09T12:09:05.375Z,40.29
2019-03-09T12:11:38.083Z,40.38
2019-03-09T12:14:11.897Z,40.15
2019-03-09T12:16:43.014Z,39.74
2019-03-09T12:19:14.233Z,39.95
2019-03-09T12:21:45.316Z,40.31
2019-03-09T12:24:19.896Z,40.63
2019-03-09T12:26:49.271Z,41.18
2019-03-09T12:29:21.390Z,40.57
2019-03-09T12:31:54.169Z,40.50
2019-03-09T12:34:25.594Z,40.38
2019-03-09T12:36:56.752Z,40.39
2019-03-09T12:39:27.936Z,40.43
2019-03-09T12:41:59.387Z,40.45
2019-03-09T12:44:30.481Z,40.27
2019-03-09T12:47:01.608Z,40.42
2019-03-09T12:49:32.878Z,40.71
2019-03-09T12:52:04.062Z,40.31
2019-03-09T12:54:35.272Z,40.54
2019-03-09T12:57:06.485Z,40.37
2019-03-09T12:59:37.754Z,40.16
2019-03-09T13:02:09.034Z,40.05
2019-03-09T13:04:40.331Z,40.68
2019-03-09T13:07:11.457Z,40.63
2019-03-09T13:09:43.012Z,40.48
2019-03-09T13:12:15.768Z,40.78
2019-03-09T13:14:46.968Z,40.70
2019-03-09T13:17:18.178Z,40.68
2019-03-09T13:19:50.458Z,40.53
2019-03-09T13:22:22.847Z,40.99
2019-03-09T13:24:56.132Z,41.06
2019-03-09T13:27:27.283Z,40.83
2019-03-09T13:30:00.130Z,40.81
2019-03-09T13:32:33.474Z,40.80
2019-03-09T13:35:05.076Z,40.44
2019-03-09T13:37:36.152Z,40.34
2019-03-09T13:40:07.742Z,40.00
2019-03-09T13:42:38.681Z,39.87
2019-03-09T13:45:14.888Z,40.27
2019-03-09T13:47:46.028Z,39.68
2019-03-09T13:50:17.181Z,39.71
2019-03-09T13:52:48.673Z,40.11
2019-03-09T13:55:19.816Z,40.17
2019-03-09T13:57:51.005Z,40.58
2019-03-09T14:00:22.132Z,40.61
2019-03-09T14:02:53.275Z,40.67
2019-03-09T14:05:24.523Z,40.96
2019-03-09T14:07:55.704Z,41.31
2019-03-09T14:10:26.967Z,41.35
2019-03-09T14:12:58.067Z,41.72
2019-03-09T14:15:29.346Z,41.94
2019-03-09T14:18:00.587Z,41.96
2019-03-09T14:20:31.848Z,42.01
2019-03-09T14:23:03.112Z,41.90
2019-03-09T14:25:34.418Z,42.38
2019-03-09T14:28:05.554Z,41.99
2019-03-09T14:30:36.933Z,42.33
2019-03-09T14:33:08.229Z,42.05
2019-03-09T14:35:41.101Z,41.91
2019-03-09T14:38:12.347Z,41.83
2019-03-09T14:40:46.633Z,42.28
2019-03-09T14:43:19.531Z,42.24
2019-03-09T14:45:52.387Z,42.07
2019-03-09T14:48:23.665Z,41.85
2019-03-09T14:50:54.859Z,41.76
2019-03-09T14:53:26.072Z,41.63
2019-03-09T14:55:59.411Z,41.71
2019-03-09T14:58:31.051Z,42.00
2019-03-09T15:01:02.341Z,42.15
2019-03-09T15:03:33.753Z,41.97
2019-03-09T15:06:05.009Z,42.32
2019-03-09T15:08:36.073Z,42.65
2019-03-09T15:11:06.455Z,42.83
2019-03-09T15:13:37.428Z,43.06
2019-03-09T15:16:09.680Z,43.40
2019-03-09T15:18:41.032Z,43.67
2019-03-09T15:21:13.908Z,43.72
2019-03-09T15:23:45.518Z,44.03
2019-03-09T15:26:16.870Z,44.17
2019-03-09T15:28:48.165Z,44.45
2019-03-09T15:31:19.444Z,44.59
2019-03-09T15:33:51.107Z,44.79
2019-03-09T15:36:22.464Z,45.13
2019-03-09T15:38:53.681Z,45.42
2019-03-09T15:41:24.936Z,45.57
2019-03-09T15:43:56.917Z,45.78
2019-03-09T15:46:28.295Z,45.97
2019-03-09T15:48:59.565Z,46.15
2019-03-09T15:51:30.835Z,46.56
2019-03-09T15:54:02.111Z,46.61
2019-03-09T15:56:33.373Z,46.66
2019-03-09T15:59:04.603Z,46.83
2019-03-09T16:01:35.837Z,47.02
2019-03-09T16:04:07.061Z,47.04
2019-03-09T16:06:38.353Z,47.44
2019-03-09T16:09:09.555Z,47.50
2019-03-09T16:11:45.009Z,47.61
2019-03-09T16:14:14.726Z,48.05
2019-03-09T16:16:47.427Z,48.31
2019-03-09T16:19:19.703Z,47.86
2019-03-09T16:21:51.319Z,47.89
2019-03-09T16:24:25.515Z,47.88
2019-03-09T16:26:57.036Z,47.79
2019-03-09T16:29:28.320Z,47.89
2019-03-09T16:32:00.620Z,47.95
2019-03-09T16:34:31.851Z,48.11
2019-03-09T16:37:04.812Z,48.48
2019-03-09T16:39:37.077Z,48.63
2019-03-09T16:42:09.123Z,47.96
2019-03-09T16:44:40.364Z,48.37
2019-03-09T16:47:14.656Z,48.78
2019-03-09T16:49:45.813Z,48.75
2019-03-09T16:52:20.987Z,48.37
2019-03-09T16:54:52.290Z,48.10
2019-03-09T16:57:24.305Z,48.06
2019-03-09T16:59:55.547Z,48.09
2019-03-09T17:02:29.909Z,47.82
2019-03-09T17:05:01.155Z,47.61
2019-03-09T17:07:32.571Z,47.58
2019-03-09T17:10:04.199Z,47.40
2019-03-09T17:12:36.302Z,47.61
2019-03-09T17:15:12.980Z,47.72
2019-03-09T17:17:44.334Z,47.83
2019-03-09T17:20:16.885Z,48.49
2019-03-09T17:22:48.235Z,48.64
2019-03-09T17:25:19.427Z,48.08
2019-03-09T17:27:50.726Z,48.04
2019-03-09T17:30:21.937Z,48.09
2019-03-09T17:32:53.224Z,48.32
2019-03-09T17:35:28.590Z,48.92
2019-03-09T17:37:59.919Z,49.27
2019-03-09T17:40:31.125Z,50.02
2019-03-09T17:43:02.431Z,49.33
2019-03-09T17:45:35.849Z,49.77
2019-03-09T17:48:09.065Z,49.82
2019-03-09T17:50:43.739Z,51.49
2019-03-09T17:53:15.783Z,53.88
2019-03-09T17:55:47.763Z,54.94
2019-03-09T17:58:19.015Z,55.56
2019-03-09T18:00:50.161Z,58.27
2019-03-09T18:03:21.307Z,60.65
2019-03-09T18:05:51.750Z,63.14
2019-03-09T18:08:23.972Z,64.06
2019-03-09T18:11:01.055Z,65.12
2019-03-09T18:13:33.985Z,66.77
2019-03-09T18:16:08.307Z,68.58
2019-03-09T18:18:42.620Z,69.99
2019-03-09T18:21:13.781Z,70.87
2019-03-09T18:23:44.965Z,70.47
2019-03-09T18:26:17.057Z,70.89
2019-03-09T18:28:49.766Z,70.56
2019-03-09T18:31:20.922Z,70.82
2019-03-09T18:33:52.803Z,69.38
2019-03-09T18:36:23.907Z,70.96
2019-03-09T18:38:55.011Z,71.22
2019-03-09T18:41:26.124Z,71.24
2019-03-09T18:43:58.257Z,72.83
2019-03-09T18:46:31.022Z,72.48
2019-03-09T18:49:02.199Z,72.79
2019-03-09T18:51:34.422Z,73.47
2019-03-09T18:54:06.590Z,74.02
2019-03-09T18:56:37.755Z,74.37
2019-03-09T18:59:08.877Z,74.56
2019-03-09T19:01:41.040Z,74.80
2019-03-09T19:04:12.291Z,74.98
2019-03-09T19:06:45.366Z,75.29
2019-03-09T19:09:17.477Z,76.03
2019-03-09T19:11:47.950Z,76.42
2019-03-09T19:14:19.101Z,76.47
2019-03-09T19:16:50.369Z,76.37
2019-03-09T19:19:23.086Z,76.58
2019-03-09T19:21:54.161Z,76.01
2019-03-09T19:24:24.713Z,76.07
2019-03-09T19:26:56.194Z,76.24
2019-03-09T19:29:28.199Z,76.05
2019-03-09T19:31:59.513Z,77.04
2019-03-09T19:34:30.851Z,77.57
2019-03-09T19:37:02.990Z,77.67
2019-03-09T19:39:34.202Z,78.27
2019-03-09T19:42:05.392Z,78.25
2019-03-09T19:44:36.542Z,79.04
2019-03-09T19:47:07.679Z,79.48
2019-03-09T19:50:19.224Z,79.91
2019-03-09T19:52:50.379Z,80.26
2019-03-09T19:55:22.595Z,80.37
2019-03-09T19:57:53.912Z,80.41
2019-03-09T20:00:25.152Z,80.72
2019-03-09T20:02:58.429Z,80.94
2019-03-09T20:05:31.157Z,81.75
2019-03-09T20:08:03.914Z,82.25
2019-03-09T20:10:41.819Z,82.77
2019-03-09T20:13:13.166Z,83.12
2019-03-09T20:15:45.949Z,83.57
2019-03-09T20:18:18.278Z,84.04
2019-03-09T20:20:52.238Z,84.29
2019-03-09T20:23:31.990Z,84.82
2019-03-09T20:26:11.785Z,84.62
2019-03-09T20:28:43.380Z,84.76
2019-03-09T20:31:14.553Z,84.92
2019-03-09T20:33:47.242Z,85.11
2019-03-09T20:36:18.413Z,84.83
2019-03-09T20:38:49.623Z,84.73
2019-03-09T20:41:20.866Z,84.69
2019-03-09T20:43:52.016Z,84.42
2019-03-09T20:46:23.291Z,84.03
2019-03-09T20:48:55.036Z,83.86
2019-03-09T20:51:30.684Z,84.01
2019-03-09T20:54:02.076Z,83.79
2019-03-09T20:56:39.366Z,83.64
2019-03-09T20:59:12.041Z,83.51
2019-03-09T21:01:43.262Z,83.47
2019-03-09T21:04:14.443Z,83.20
2019-03-09T21:06:47.506Z,83.28
2019-03-09T21:09:18.754Z,83.00
2019-03-09T21:11:49.900Z,82.68
2019-03-09T21:14:21.108Z,82.75
2019-03-09T21:16:52.303Z,82.51
2019-03-09T21:19:30.539Z,81.83
2019-03-09T21:22:01.679Z,81.10
2019-03-09T21:24:32.885Z,80.61
2019-03-09T21:27:04.070Z,80.35
2019-03-09T21:29:35.224Z,79.77
2019-03-09T21:32:06.394Z,79.20
2019-03-09T21:34:37.619Z,78.56
2019-03-09T21:37:08.778Z,77.78
2019-03-09T21:39:39.925Z,77.22
2019-03-09T21:42:11.696Z,77.13
2019-03-09T21:44:43.040Z,77.29
2019-03-09T21:47:15.177Z,77.07
2019-03-09T21:49:46.466Z,76.78
2019-03-09T21:52:17.628Z,76.67
2019-03-09T21:54:49.791Z,76.41
2019-03-09T21:57:20.917Z,76.24
2019-03-09T21:59:52.120Z,76.29
2019-03-09T22:02:23.311Z,76.62
2019-03-09T22:04:55.066Z,76.94
2019-03-09T22:07:26.247Z,77.17
2019-03-09T22:09:57.377Z,77.60
2019-03-09T22:12:29.494Z,77.65
2019-03-09T22:15:01.361Z,77.84
2019-03-09T22:17:32.554Z,78.08
2019-03-09T22:20:05.407Z,77.99
2019-03-09T22:22:37.014Z,78.03
2019-03-09T22:25:10.604Z,77.88
2019-03-09T22:27:41.711Z,77.58
2019-03-09T22:30:19.002Z,77.58
2019-03-09T22:32:50.133Z,77.47
2019-03-09T22:35:22.394Z,77.64
2019-03-09T22:37:53.727Z,77.65
2019-03-09T22:40:26.495Z,77.54
2019-03-09T22:42:57.692Z,77.16
2019-03-09T22:45:29.883Z,76.06
2019-03-09T22:48:01.021Z,75.21
2019-03-09T22:50:32.256Z,74.04
2019-03-09T22:53:03.434Z,74.10
2019-03-09T22:55:36.071Z,73.58
2019-03-09T22:58:07.594Z,73.46
2019-03-09T23:00:38.104Z,73.11
2019-03-09T23:03:10.760Z,73.59
2019-03-09T23:05:42.938Z,73.64
2019-03-09T23:08:16.351Z,73.71
2019-03-09T23:10:47.522Z,73.80
2019-03-09T23:13:20.433Z,73.76
2019-03-09T23:15:51.600Z,73.84
2019-03-09T23:18:22.771Z,74.16
2019-03-09T23:20:56.818Z,73.99
2019-03-09T23:23:27.978Z,74.10
2019-03-09T23:25:59.222Z,74.18
2019-03-09T23:28:44.379Z,73.36
2019-03-09T23:31:15.645Z,73.11
2019-03-09T23:33:48.087Z,72.29
2019-03-09T23:36:18.839Z,71.86
2019-03-09T23:38:51.809Z,71.46
2019-03-09T23:41:23.011Z,71.46
2019-03-09T23:43:54.156Z,70.83
2019-03-09T23:46:26.939Z,70.91
2019-03-09T23:48:59.106Z,70.54
2019-03-09T23:51:30.358Z,70.42
2019-03-09T23:54:01.539Z,70.13
2019-03-09T23:56:34.030Z,70.04
2019-03-09T23:59:06.138Z,69.95
